Nearby METAR Reports

 

CYFC - Fredericton Airp, New Brunswick
Distance from station: E 14km
Updated: Fri, 07-Aug-2020 9:00pm ADT
Clear
Clear
 Wind from SW
Wind: SW 9 km/h
Temperature: 22°C
Dew Point: 14°C
Humidity: 61%
Barometer: 1019 hPa
Clouds: Clear
Visibility: 14 km
2020/08/08 00:00 CYFC 080000Z AUTO 22005KT 9SM CLR 22/14 A3009 RMK SLP190 DENSITY ALT 700FT
CYCX - Gagetown (can M, New Brunswick
Distance from station: E 22km
Updated: Fri, 07-Aug-2020 9:00pm ADT
Clear
Clear
 Wind from S
Wind: S 13 km/h
Temperature: 23°C
Dew Point: 14°C
Humidity: 57%
Barometer: 1019.3 hPa
Clouds: Clear
Visibility: 14 km
2020/08/08 00:00 CYCX 080000Z AUTO 19007KT 9SM CLR 23/14 A3010 RMK SLP193
 
CYQM - Moncton Airport, New Brunswick
Distance from station: ENE 159km
Updated: Fri, 07-Aug-2020 9:00pm ADT
Partly cloudy
Partly cloudy
 Wind from SW
Wind: SW 22 km/h, Gust: 37 km/h
Temperature: 25°C
Dew Point: 13°C
Humidity: 47%
Barometer: 1019 hPa
Clouds: Partly cloudy
Visibility: 24 km
Cloud details: Few Clouds 1524 m
Few Clouds 2743 m
Partly cloudy 6706 m
2020/08/08 00:00 CYQM 080000Z 23012G20KT 15SM FEW050 FEW090 SCT220 25/13 A3009 RMK SC1AC1CI3 AC TR SLP192 DENSITY ALT 1300FT
CYSJ - Saint John, New Brunswick
Distance from station: SE 88km
Updated: Fri, 07-Aug-2020 9:00pm ADT
Mostly cloudy
Mostly cloudy
 Wind from SSW
Wind: SSW 7 km/h
Temperature: 18°C
Dew Point: 13°C
Humidity: 73%
Barometer: 1020.7 hPa
Clouds: Mostly cloudy
Visibility: 24 km
Cloud details: Few Clouds 1524 m
Mostly cloudy 8230 m
2020/08/08 00:00 CYSJ 080000Z 20004KT 15SM FEW050 BKN270 18/13 A3014 RMK SC1CI4 SLP209 DENSITY ALT 600FT
 
CWPE - Point Lepreau, New Brunswick
Distance from station: SSE 90km
Updated: Fri, 07-Aug-2020 9:00pm ADT

 Wind from W
Wind: W 6 km/h
Temperature: 17°C
Dew Point: 12°C
Humidity: 73%
2020/08/08 00:00 CWPE 080000Z AUTO 27003KT 17/12 RMK AO1 SLP208 T01680117 53003
CYHZ - Halifax Intl Arp, Nova Scotia
Distance from station: ESE 273km
Updated: Fri, 07-Aug-2020 9:00pm ADT
Mostly cloudy
Mostly cloudy
 Wind from SSW
Wind: SSW 13 km/h
Temperature: 20°C
Dew Point: 13°C
Humidity: 64%
Barometer: 1021 hPa
Clouds: Mostly cloudy
Visibility: 24 km
Cloud details: Mostly cloudy 7620 m
2020/08/08 00:00 CYHZ 080000Z 21007KT 15SM BKN250 20/13 A3015 RMK CS7 SLP213 DENSITY ALT 900FT
 
CYZX - Greenwood (can M, Nova Scotia
Distance from station: SE 169km
Updated: Fri, 07-Aug-2020 9:00pm ADT
Mostly cloudy
Mostly cloudy
 Wind from WSW
Wind: WSW 11 km/h
Temperature: 22°C
Dew Point: 12°C
Humidity: 53%
Barometer: 1021.3 hPa
Clouds: Mostly cloudy
Visibility: 24 km
Cloud details: Mostly cloudy 7620 m
2020/08/08 00:00 CYZX 080000Z 24006KT 15SM BKN250 22/12 A3016 RMK CI6 SLP212
CYQI - Yarmouth Airport, Nova Scotia
Distance from station: SSE 230km
Updated: Fri, 07-Aug-2020 9:00pm ADT
Overcast
Overcast
 Wind from calm
Wind: Calm
Temperature: 18°C
Dew Point: 13°C
Humidity: 73%
Barometer: 1021.7 hPa
Clouds: Overcast
Visibility: 24 km
Cloud details: Overcast 7315 m
2020/08/08 00:00 CYQI 080000Z 00000KT 15SM OVC240 18/13 A3017 RMK CS8 SLP218 DENSITY ALT 200FT
 
KHUL - Houlton, Maine, USA
Distance from station: WNW 90km
Updated: Fri, 07-Aug-2020 8:53pm ADT
Clear
Clear
 Wind from S
Wind: S 6 km/h
Temperature: 21°C
Dew Point: 14°C
Humidity: 64%
Barometer: 1019 hPa
Clouds: Clear
Visibility: 16 km
2020/08/07 23:53 KHUL 072353Z AUTO 18003KT 10SM CLR 21/14 A3009 RMK AO2 SLP190 T02060144 10289 20206 53003
KPQI - Presque Isle, Maine, USA
Distance from station: NW 137km
Updated: Fri, 07-Aug-2020 8:56pm ADT
Clear
Clear
 Wind from calm
Wind: Calm
Temperature: 22°C
Dew Point: 12°C
Humidity: 53%
Barometer: 1019.6 hPa
Clouds: Clear
Visibility: 16 km
2020/08/07 23:56 KPQI 072356Z AUTO 00000KT 10SM CLR 22/12 A3011 RMK AO2 SLP217 T02170122 10283 20217 53005
 
KCAR - Caribou, Maine, USA
Distance from station: NW 151km
Updated: Fri, 07-Aug-2020 8:54pm ADT
Clear
Clear
 Wind from calm
Wind: Calm
Temperature: 23°C
Dew Point: 11°C
Humidity: 47%
Barometer: 1019 hPa
Clouds: Clear
Visibility: 16 km
2020/08/07 23:54 KCAR 072354Z AUTO 00000KT 10SM CLR 23/11 A3009 RMK AO2 SLP191 T02280106 10294 20228 53004
KMLT - Millinocket, Maine, USA
Distance from station: W 157km
Updated: Fri, 07-Aug-2020 8:53pm ADT
Clear
Clear
 Wind from calm
Wind: Calm
Temperature: 23°C
Dew Point: 15°C
Humidity: 61%
Barometer: 1020.3 hPa
Clouds: Clear
Visibility: 16 km
2020/08/07 23:53 KMLT 072353Z AUTO 00000KT 10SM CLR 23/15 A3013 RMK AO2 SLP206 T02280150 10289 20222 53001
 
KBGR - Bangor, Maine, USA
Distance from station: SW 203km
Updated: Fri, 07-Aug-2020 8:53pm ADT
Mostly cloudy
Mostly cloudy
 Wind from S
Wind: S 13 km/h
Temperature: 22°C
Dew Point: 13°C
Humidity: 57%
Barometer: 1020.7 hPa
Clouds: Mostly cloudy
Visibility: 16 km
Cloud details: Few Clouds 4572 m
Mostly cloudy 7620 m
2020/08/07 23:53 KBGR 072353Z 17007KT 10SM FEW150 BKN250 22/13 A3014 RMK AO2 SLP204 T02220128 10283 20222 53003
KBHB - Bar Harbor, Maine, USA
Distance from station: SW 204km
Updated: Fri, 07-Aug-2020 8:56pm ADT
Clear
Clear
 Wind from SW
Wind: SW 7 km/h
Temperature: 19°C
Dew Point: 14°C
Humidity: 73%
Barometer: 1021.3 hPa
Clouds: Clear
Visibility: 14 km
2020/08/07 23:56 KBHB 072356Z AUTO 22004KT 9SM CLR 19/14 A3016 RMK AO2 SLP215 T01940139 10261 20194 55000
 
CWVU - Brier Island(Aut, Nova Scotia
Distance from station: S 177km
Updated: Fri, 07-Aug-2020 9:00pm ADT

 Wind from SSW
Wind: SSW 9 km/h
Temperature: 18°C
Dew Point: 14°C
Humidity: 78%
2020/08/08 00:00 CWVU 080000Z AUTO 20005KT 18/14 RMK AO1 SLP216 T01780141 55001
CXNP - Nappan (auto), Nova Scotia
Distance from station: E 191km
Updated: Fri, 07-Aug-2020 9:00pm ADT

 Wind from SSW
Wind: SSW 20 km/h, Gust: 31 km/h
Temperature: 21°C
Dew Point: 12°C
Humidity: 57%
2020/08/08 00:00 CXNP 080000Z AUTO 20011G17KT 21/12 RMK AO1 PK WND 24020/2304 SLP202 T02100115 53007
 
CXKT - Kentville (autob, Nova Scotia
Distance from station: ESE 193km
Updated: Fri, 07-Aug-2020 9:00pm ADT

 Wind from S
Wind: S 4 km/h
Temperature: 21°C
Dew Point: 12°C
Humidity: 57%
2020/08/08 00:00 CXKT 080000Z AUTO 19002KT 21/12 RMK AO1 SLP206 T02140119 53008
CWKG - Kejimkujik (au8), Nova Scotia
Distance from station: SE 197km
Updated: Fri, 07-Aug-2020 9:00pm ADT

 Wind from NW
Wind: NW 4 km/h
Temperature: 21°C
Dew Point: 14°C
Humidity: 64%
2020/08/08 00:00 CWKG 080000Z AUTO 32002KT 21/14 RMK AO1 SLP216 T02060135 53007
 
KFVE - Frenchville, Maine, USA
Distance from station: NW 201km
Updated: Fri, 07-Aug-2020 8:53pm ADT
Clear
Clear
 Wind from calm
Wind: Calm
Temperature: 24°C
Dew Point: 8°C
Humidity: 36%
Barometer: 1019.6 hPa
Clouds: Clear
Visibility: 16 km
2020/08/07 23:53 KFVE 072353Z AUTO 00000KT 10SM CLR 24/08 A3011 RMK AO2 SLP190 T02440078 10272 20244 53003
CZBF - Bathurst Arpt(Aw, New Brunswick
Distance from station: NNE 208km
Updated: Fri, 07-Aug-2020 9:00pm ADT
Clear
Clear
 Wind from W
Wind: W 4 km/h
Temperature: 20°C
Dew Point: 14°C
Humidity: 69%
Barometer: 1018.6 hPa
Clouds: Clear
Visibility: 14 km
2020/08/08 00:00 CZBF 080000Z AUTO 28002KT 9SM CLR 20/14 A3008 RMK SLP187 DENSITY ALT 600FT
 
CERM - Edmunston, New Brunswick
Distance from station: NW 213km
Updated: Fri, 07-Aug-2020 9:00pm ADT

 Wind from NNW
Wind: NNW 4 km/h
Temperature: 17°C
Dew Point: 13°C
Humidity: 77%
2020/08/08 00:00 CERM 080000Z AUTO 33002KT 17/13 RMK AO1 SLP188 T01690131 53006
KGNR - Greenville, Maine, USA
Distance from station: W 226km
Updated: Fri, 07-Aug-2020 8:56pm ADT

 Wind from calm
Wind: Calm
Temperature: 20°C
Dew Point: 14°C
Humidity: 69%
Barometer: 1021 hPa
2020/08/07 23:56 KGNR 072356Z AUTO 00000KT 20/14 A3015 RMK AO1 SLP208 T02000139 10267 20200 53003
 
CWSD - Summerside (auto, PEI
Distance from station: ENE 228km
Updated: Fri, 07-Aug-2020 9:00pm ADT

 Wind from S
Wind: S 15 km/h
Temperature: 22°C
Dew Point: 16°C
Humidity: 69%
2020/08/08 00:00 CWSD 080000Z AUTO 19008KT 22/16 RMK AO1 SLP191 T02150155 53007
K40B - Clayton Lake, Maine, USA
Distance from station: WNW 233km
Updated: Fri, 07-Aug-2020 9:16pm ADT

 Wind from calm
Wind: Calm
Temperature: 19°C
Dew Point: 12°C
Humidity: 64%
Barometer: 1020.7 hPa
2020/08/08 00:16 K40B 080016Z AUTO 00000KT 19/12 A3014 RMK AO1 SLP194 T01860119 10268 20186 53005
 
CZCR - Charlo Airport, New Brunswick
Distance from station: N 236km
Updated: Fri, 07-Aug-2020 9:00pm ADT

 Wind from SW
Wind: SW 6 km/h
Temperature: 22°C
Dew Point: 14°C
Humidity: 61%
2020/08/08 00:00 CZCR 080000Z AUTO 23003KT 22/14 RMK AO1 3006 SLP176 T02170140 50002
CWNE - North Point (aut, Ontario
Distance from station: NE 246km
Updated: Fri, 07-Aug-2020 9:00pm ADT

 Wind from WSW
Wind: WSW 6 km/h
Temperature: 23°C
Dew Point: 13°C
Humidity: 53%
2020/08/08 00:00 CWNE 080000Z AUTO 24003KT 23/13 RMK AO1 SLP179 T02310133 53006
 
CXLB - Lunenburg, Nova Scotia
Distance from station: SE 250km
Updated: Fri, 07-Aug-2020 9:00pm ADT

 Wind from SW
Wind: SW 6 km/h
Temperature: 17°C
Dew Point: 14°C
Humidity: 83%
2020/08/08 00:00 CXLB 080000Z AUTO 22003KT 17/14 RMK AO1 SLP201 T01710135 53004
CZDB - Debert, Nova Scotia
Distance from station: E 255km
Updated: Fri, 07-Aug-2020 9:00pm ADT

 Wind from W
Wind: W 11 km/h
Temperature: 19°C
Dew Point: 15°C
Humidity: 78%
2020/08/08 00:00 CZDB 080000Z AUTO 26006KT 19/15 RMK AO1 SLP207 T01930149 53008
 
CWOC - New Carlisle1, Quebec
Distance from station: NNE 262km
Updated: Wed, 22-Jul-2020 1:00am ADT
NOT Current

 Wind from WNW
Wind: WNW 9 km/h
Temperature: 16°C
Dew Point: 11°C
Humidity: 72%
2020/07/22 04:00 CWOC 220400Z AUTO 29005KT 16/11 RMK AO1 SLP137 T01580114 53009
CWWE - Western Head (ma, Nova Scotia
Distance from station: SE 264km
Updated: Fri, 07-Aug-2020 9:00pm ADT

 Wind from SW
Wind: SW 7 km/h
Temperature: 11°C
Dew Point: 9°C
Humidity: 88%
2020/08/08 00:00 CWWE 080000Z AUTO 23004KT 11/09 RMK AO1 SLP209 T01130094 55000
 
KRKD - Rockland/Knox, Maine, USA
Distance from station: SW 274km
Updated: Fri, 07-Aug-2020 8:56pm ADT
Clear
Clear
 Wind from WSW
Wind: WSW 7 km/h
Temperature: 19°C
Dew Point: 15°C
Humidity: 78%
Barometer: 1021.3 hPa
Clouds: Clear
Visibility: 16 km
2020/08/07 23:56 KRKD 072356Z AUTO 25004KT 10SM CLR 19/15 A3016 RMK AO2 SLP213 T01940150 10250 20194 55004
CAHR - Harrington Cda, Ontario
Distance from station: ENE 277km
Updated: Fri, 07-Aug-2020 9:00pm ADT

 Wind from SW
Wind: SW 9 km/h
Temperature: 22°C
Dew Point: 13°C
Humidity: 57%
2020/08/08 00:00 CAHR 080000Z AUTO 23005KT 22/13 RMK AO1 SLP194 T02200127 53009
 
KWVL - Waterville, Maine, USA
Distance from station: WSW 277km
Updated: Fri, 07-Aug-2020 9:27pm ADT
Haze, Clear
Haze, Clear
 Wind from SSW
Wind: SSW 6 km/h
Temperature: 19°C
Dew Point: 14°C
Humidity: 73%
Barometer: 1020.7 hPa
Summary: Haze
Clouds: Clear
Visibility: 3 km
2020/08/08 00:27 KWVL 080027Z AUTO 21003KT 2SM HZ CLR 19/14 A3014 RMK AO2 VIS 3/4V5
CYYG - Charlottetown Ar, PEI
Distance from station: E 280km
Updated: Fri, 07-Aug-2020 9:00pm ADT
Mostly cloudy
Mostly cloudy
 Wind from SW
Wind: SW 13 km/h
Temperature: 22°C
Dew Point: 13°C
Humidity: 57%
Barometer: 1019.6 hPa
Clouds: Mostly cloudy
Visibility: 24 km
Cloud details: Mostly cloudy 8534 m
2020/08/08 00:00 CYYG 080000Z 23007KT 15SM BKN280 22/13 A3011 RMK CI6 SLP196 DENSITY ALT 900FT
 
CXMI - Mcnabs Island, Nova Scotia
Distance from station: ESE 284km
Updated: Fri, 07-Aug-2020 9:00pm ADT

 Wind from W
Wind: W 6 km/h
Temperature: 19°C
Dew Point: 12°C
Humidity: 64%
2020/08/08 00:00 CXMI 080000Z AUTO 28003KT 19/12 RMK AO1 SLP208 T01850120 51009
KAUG - Augusta, Maine, USA
Distance from station: SW 298km
Updated: Fri, 07-Aug-2020 8:53pm ADT
Clear
Clear
 Wind from calm
Wind: Calm
Temperature: 22°C
Dew Point: 13°C
Humidity: 57%
Barometer: 1021.3 hPa
Clouds: Clear
Visibility: 16 km
2020/08/07 23:53 KAUG 072353Z AUTO 00000KT 10SM CLR 22/13 A3016 RMK AO2 SLP214 T02170128 10272 20217 53001
 
CWST - La Pocatiere, Quebec
Distance from station: NW 303km
Updated: Fri, 07-Aug-2020 9:00pm ADT

 Wind from SW
Wind: SW 17 km/h
Temperature: 24°C
Dew Point: 11°C
Humidity: 44%
2020/08/08 00:00 CWST 080000Z AUTO 22009KT 24/11 RMK AO1 SLP186 T02370108 53002
CWNH - Riviere Du Loup, Quebec
Distance from station: NW 304km
Updated: Fri, 07-Aug-2020 9:00pm ADT

 Wind from SW
Wind: SW 9 km/h
Temperature: 23°C
Dew Point: 9°C
Humidity: 41%
2020/08/08 00:00 CWNH 080000Z AUTO 22005KT 23/09 RMK AO1 SLP190 T02280092 53004
 
CWBK - Caribou Point(Ma, Nova Scotia
Distance from station: E 312km
Updated: Fri, 07-Aug-2020 9:00pm ADT

 Wind from SW
Wind: SW 9 km/h
Temperature: 23°C
Dew Point: 15°C
Humidity: 61%
2020/08/08 00:00 CWBK 080000Z AUTO 22005KT 23/15 RMK AO1 SLP195 T02270146 53008
CWHV - Beauceville, Quebec
Distance from station: W 317km
Updated: Fri, 07-Aug-2020 9:00pm ADT

 Wind from W
Wind: W 7 km/h
Temperature: 21°C
Dew Point: 13°C
Humidity: 60%
2020/08/08 00:00 CWHV 080000Z AUTO 27004KT 21/13 RMK AO1 SLP204 T02120132 53002
 
KIWI - Wiscasset, Maine, USA
Distance from station: SW 318km
Updated: Fri, 07-Aug-2020 8:53pm ADT
Clear
Clear
 Wind from calm
Wind: Calm
Temperature: 21°C
Dew Point: 16°C
Humidity: 73%
Barometer: 1021.7 hPa
Clouds: Clear
Visibility: 16 km
2020/08/07 23:53 KIWI 072353Z AUTO 00000KT 10SM CLR 21/16 A3017 RMK AO2 SLP216 T02110156 10261 20211 56002